sensor_id;sensor_type;location;lat;lon;timestamp;pressure;altitude;pressure_sealevel;temperature;humidity
69955;BME280;57279;55.912;37.490;2022-10-22T00:02:17;99727.00;;;5.55;76.72
69955;BME280;57279;55.912;37.490;2022-10-22T00:04:49;99728.63;;;5.56;76.82
69955;BME280;57279;55.912;37.490;2022-10-22T00:07:16;99729.25;;;5.58;76.52
69955;BME280;57279;55.912;37.490;2022-10-22T00:09:42;99719.38;;;5.58;76.49
69955;BME280;57279;55.912;37.490;2022-10-22T00:12:08;99729.69;;;5.55;76.66
69955;BME280;57279;55.912;37.490;2022-10-22T00:14:34;99725.59;;;5.52;76.83
69955;BME280;57279;55.912;37.490;2022-10-22T00:17:00;99723.75;;;5.53;77.03
69955;BME280;57279;55.912;37.490;2022-10-22T00:19:26;99724.75;;;5.52;76.91
69955;BME280;57279;55.912;37.490;2022-10-22T00:21:52;99730.72;;;5.54;77.05
69955;BME280;57279;55.912;37.490;2022-10-22T00:24:18;99732.59;;;5.53;76.89
69955;BME280;57279;55.912;37.490;2022-10-22T00:26:43;99723.53;;;5.54;77.04
69955;BME280;57279;55.912;37.490;2022-10-22T00:29:09;99718.16;;;5.54;77.16
69955;BME280;57279;55.912;37.490;2022-10-22T00:31:35;99717.19;;;5.48;76.83
69955;BME280;57279;55.912;37.490;2022-10-22T00:34:01;99701.31;;;5.47;76.92
69955;BME280;57279;55.912;37.490;2022-10-22T00:36:26;99706.22;;;5.50;77.06
69955;BME280;57279;55.912;37.490;2022-10-22T00:38:52;99706.69;;;5.47;76.93
69955;BME280;57279;55.912;37.490;2022-10-22T00:41:18;99716.78;;;5.45;77.01
69955;BME280;57279;55.912;37.490;2022-10-22T00:47:00;99705.41;;;5.49;76.68
69955;BME280;57279;55.912;37.490;2022-10-22T00:49:25;99709.75;;;5.51;76.92
69955;BME280;57279;55.912;37.490;2022-10-22T00:51:51;99703.78;;;5.48;76.83
69955;BME280;57279;55.912;37.490;2022-10-22T00:54:17;99706.00;;;5.52;77.23
69955;BME280;57279;55.912;37.490;2022-10-22T00:56:42;99717.56;;;5.52;76.81
69955;BME280;57279;55.912;37.490;2022-10-22T00:59:10;99712.81;;;5.54;77.22
69955;BME280;57279;55.912;37.490;2022-10-22T01:01:37;99708.09;;;5.49;77.10
69955;BME280;57279;55.912;37.490;2022-10-22T01:04:03;99717.81;;;5.44;77.18
69955;BME280;57279;55.912;37.490;2022-10-22T01:06:31;99716.66;;;5.33;77.62
69955;BME280;57279;55.912;37.490;2022-10-22T01:12:27;99712.72;;;5.36;78.00
69955;BME280;57279;55.912;37.490;2022-10-22T01:25:59;99710.28;;;5.59;76.77
69955;BME280;57279;55.912;37.490;2022-10-22T01:31:22;99712.13;;;5.59;76.76
69955;BME280;57279;55.912;37.490;2022-10-22T01:33:50;99707.97;;;5.63;76.95
69955;BME280;57279;55.912;37.490;2022-10-22T01:36:18;99713.94;;;5.65;76.85
69955;BME280;57279;55.912;37.490;2022-10-22T01:38:44;99712.47;;;5.69;76.72
69955;BME280;57279;55.912;37.490;2022-10-22T01:41:11;99716.59;;;5.72;76.77
69955;BME280;57279;55.912;37.490;2022-10-22T01:43:37;99717.38;;;5.72;76.67
69955;BME280;57279;55.912;37.490;2022-10-22T01:46:04;99711.59;;;5.75;76.77
69955;BME280;57279;55.912;37.490;2022-10-22T01:54:38;99711.59;;;5.75;76.51
69955;BME280;57279;55.912;37.490;2022-10-22T01:57:18;99719.66;;;5.75;76.76
69955;BME280;57279;55.912;37.490;2022-10-22T02:00:05;99722.75;;;5.72;76.47
69955;BME280;57279;55.912;37.490;2022-10-22T02:05:31;99720.06;;;5.72;76.72
69955;BME280;57279;55.912;37.490;2022-10-22T02:08:13;99727.69;;;5.75;76.83
69955;BME280;57279;55.912;37.490;2022-10-22T02:10:44;99726.09;;;5.67;76.98
69955;BME280;57279;55.912;37.490;2022-10-22T02:13:15;99724.63;;;5.72;76.77
69955;BME280;57279;55.912;37.490;2022-10-22T02:15:44;99726.03;;;5.74;76.77
69955;BME280;57279;55.912;37.490;2022-10-22T02:18:11;99731.59;;;5.73;76.88
69955;BME280;57279;55.912;37.490;2022-10-22T02:20:40;99732.44;;;5.73;77.15
69955;BME280;57279;55.912;37.490;2022-10-22T02:23:07;99739.00;;;5.77;76.85
69955;BME280;57279;55.912;37.490;2022-10-22T02:25:38;99739.44;;;5.74;76.87
69955;BME280;57279;55.912;37.490;2022-10-22T02:28:36;99739.00;;;5.77;76.96
69955;BME280;57279;55.912;37.490;2022-10-22T02:31:18;99734.06;;;5.74;76.99
69955;BME280;57279;55.912;37.490;2022-10-22T02:33:47;99734.28;;;5.73;77.24
69955;BME280;57279;55.912;37.490;2022-10-22T02:36:16;99742.28;;;5.79;77.13
69955;BME280;57279;55.912;37.490;2022-10-22T02:38:45;99733.56;;;5.84;76.87
69955;BME280;57279;55.912;37.490;2022-10-22T02:41:12;99736.53;;;5.76;77.01
69955;BME280;57279;55.912;37.490;2022-10-22T02:43:40;99746.16;;;5.83;76.78
69955;BME280;57279;55.912;37.490;2022-10-22T02:46:08;99745.47;;;5.88;77.04
69955;BME280;57279;55.912;37.490;2022-10-22T02:48:34;99744.47;;;5.89;76.51
69955;BME280;57279;55.912;37.490;2022-10-22T02:50:59;99748.72;;;5.72;76.55
69955;BME280;57279;55.912;37.490;2022-10-22T02:53:25;99747.19;;;5.82;76.98
69955;BME280;57279;55.912;37.490;2022-10-22T02:55:51;99748.94;;;5.70;76.85
69955;BME280;57279;55.912;37.490;2022-10-22T02:58:16;99751.13;;;5.55;77.33
69955;BME280;57279;55.912;37.490;2022-10-22T03:00:42;99742.38;;;5.66;77.45
69955;BME280;57279;55.912;37.490;2022-10-22T03:03:07;99752.97;;;5.54;77.39
69955;BME280;57279;55.912;37.490;2022-10-22T03:05:33;99750.75;;;5.44;77.87
69955;BME280;57279;55.912;37.490;2022-10-22T03:07:59;99745.41;;;5.44;78.14
69955;BME280;57279;55.912;37.490;2022-10-22T03:10:24;99744.94;;;5.54;77.89
69955;BME280;57279;55.912;37.490;2022-10-22T03:12:50;99740.22;;;5.49;78.26
69955;BME280;57279;55.912;37.490;2022-10-22T03:15:16;99747.56;;;5.61;78.40
69955;BME280;57279;55.912;37.490;2022-10-22T03:17:41;99748.72;;;5.72;78.21
69955;BME280;57279;55.912;37.490;2022-10-22T03:20:07;99741.69;;;5.77;77.79
69955;BME280;57279;55.912;37.490;2022-10-22T03:22:34;99746.38;;;5.82;77.39
69955;BME280;57279;55.912;37.490;2022-10-22T03:25:05;99745.94;;;5.85;77.42
69955;BME280;57279;55.912;37.490;2022-10-22T03:27:32;99749.50;;;5.79;77.16
69955;BME280;57279;55.912;37.490;2022-10-22T03:30:00;99749.22;;;5.62;77.79
69955;BME280;57279;55.912;37.490;2022-10-22T03:32:26;99743.25;;;5.60;78.25
69955;BME280;57279;55.912;37.490;2022-10-22T03:34:51;99743.78;;;5.68;78.29
69955;BME280;57279;55.912;37.490;2022-10-22T03:37:17;99742.31;;;5.73;78.38
69955;BME280;57279;55.912;37.490;2022-10-22T03:39:43;99736.47;;;5.82;78.12
69955;BME280;57279;55.912;37.490;2022-10-22T03:42:10;99741.41;;;5.85;77.67
69955;BME280;57279;55.912;37.490;2022-10-22T03:44:38;99750.47;;;5.84;77.94
69955;BME280;57279;55.912;37.490;2022-10-22T03:47:04;99750.22;;;5.67;78.23
69955;BME280;57279;55.912;37.490;2022-10-22T03:49:30;99748.56;;;5.66;78.39
69955;BME280;57279;55.912;37.490;2022-10-22T03:51:56;99748.56;;;5.66;78.81
69955;BME280;57279;55.912;37.490;2022-10-22T03:54:22;99744.84;;;5.67;79.12
69955;BME280;57279;55.912;37.490;2022-10-22T03:56:48;99745.97;;;5.78;78.68
69955;BME280;57279;55.912;37.490;2022-10-22T03:59:14;99738.94;;;5.84;78.95
69955;BME280;57279;55.912;37.490;2022-10-22T04:01:40;99744.97;;;5.79;78.79
69955;BME280;57279;55.912;37.490;2022-10-22T04:04:06;99742.22;;;5.86;79.15
69955;BME280;57279;55.912;37.490;2022-10-22T04:06:32;99749.59;;;5.91;78.82
69955;BME280;57279;55.912;37.490;2022-10-22T04:08:58;99747.13;;;5.89;78.64
69955;BME280;57279;55.912;37.490;2022-10-22T04:11:24;99739.13;;;5.82;78.69
69955;BME280;57279;55.912;37.490;2022-10-22T04:13:49;99743.84;;;5.87;78.90
69955;BME280;57279;55.912;37.490;2022-10-22T04:16:20;99740.84;;;5.77;78.56
69955;BME280;57279;55.912;37.490;2022-10-22T04:18:47;99745.56;;;5.81;78.99
69955;BME280;57279;55.912;37.490;2022-10-22T04:21:14;99748.88;;;5.77;78.90
69955;BME280;57279;55.912;37.490;2022-10-22T04:23:46;99747.63;;;5.79;78.83
69955;BME280;57279;55.912;37.490;2022-10-22T04:26:12;99744.25;;;5.91;78.88
69955;BME280;57279;55.912;37.490;2022-10-22T04:28:38;99746.31;;;5.88;78.69
69955;BME280;57279;55.912;37.490;2022-10-22T04:31:11;99748.34;;;5.93;78.82
69955;BME280;57279;55.912;37.490;2022-10-22T04:33:37;99750.41;;;5.98;78.59
69955;BME280;57279;55.912;37.490;2022-10-22T04:36:22;99747.47;;;5.99;78.94
69955;BME280;57279;55.912;37.490;2022-10-22T04:38:51;99749.66;;;5.84;78.12
69955;BME280;57279;55.912;37.490;2022-10-22T04:41:20;99754.13;;;5.90;78.95
69955;BME280;57279;55.912;37.490;2022-10-22T04:43:46;99757.31;;;5.80;78.37
69955;BME280;57279;55.912;37.490;2022-10-22T04:46:12;99754.69;;;5.74;78.48
69955;BME280;57279;55.912;37.490;2022-10-22T04:48:40;99754.50;;;5.68;78.58
69955;BME280;57279;55.912;37.490;2022-10-22T04:51:07;99756.97;;;5.70;78.86
69955;BME280;57279;55.912;37.490;2022-10-22T04:53:34;99753.41;;;5.76;79.06
69955;BME280;57279;55.912;37.490;2022-10-22T04:56:13;99752.78;;;5.81;78.87
69955;BME280;57279;55.912;37.490;2022-10-22T04:58:48;99755.78;;;5.91;78.86
69955;BME280;57279;55.912;37.490;2022-10-22T05:01:19;99750.91;;;5.81;78.73
69955;BME280;57279;55.912;37.490;2022-10-22T05:03:45;99755.81;;;5.84;78.59
69955;BME280;57279;55.912;37.490;2022-10-22T05:06:12;99757.66;;;5.91;78.53
69955;BME280;57279;55.912;37.490;2022-10-22T05:08:38;99759.47;;;5.90;78.44
69955;BME280;57279;55.912;37.490;2022-10-22T05:11:12;99759.56;;;5.83;78.14
69955;BME280;57279;55.912;37.490;2022-10-22T05:13:38;99766.41;;;5.79;78.30
69955;BME280;57279;55.912;37.490;2022-10-22T05:16:03;99757.03;;;5.88;78.16
69955;BME280;57279;55.912;37.490;2022-10-22T05:18:29;99761.13;;;5.98;78.29
69955;BME280;57279;55.912;37.490;2022-10-22T05:20:55;99767.50;;;5.97;78.22
69955;BME280;57279;55.912;37.490;2022-10-22T05:23:21;99760.03;;;6.05;77.93
69955;BME280;57279;55.912;37.490;2022-10-22T05:25:46;99765.22;;;6.00;77.45
69955;BME280;57279;55.912;37.490;2022-10-22T05:28:12;99761.94;;;5.98;77.52
69955;BME280;57279;55.912;37.490;2022-10-22T05:30:37;99764.03;;;5.96;78.22
69955;BME280;57279;55.912;37.490;2022-10-22T05:33:03;99768.75;;;5.94;77.88
69955;BME280;57279;55.912;37.490;2022-10-22T05:35:29;99766.72;;;5.90;77.84
69955;BME280;57279;55.912;37.490;2022-10-22T05:37:54;99775.75;;;5.95;78.06
69955;BME280;57279;55.912;37.490;2022-10-22T05:40:20;99771.22;;;5.96;77.83
69955;BME280;57279;55.912;37.490;2022-10-22T05:42:46;99780.81;;;5.78;77.79
69955;BME280;57279;55.912;37.490;2022-10-22T05:45:11;99784.00;;;5.94;77.76
69955;BME280;57279;55.912;37.490;2022-10-22T05:47:37;99783.91;;;6.07;77.68
69955;BME280;57279;55.912;37.490;2022-10-22T05:50:03;99783.91;;;6.07;77.37
69955;BME280;57279;55.912;37.490;2022-10-22T05:52:28;99782.88;;;6.08;77.39
69955;BME280;57279;55.912;37.490;2022-10-22T05:54:54;99779.78;;;6.11;77.02
69955;BME280;57279;55.912;37.490;2022-10-22T05:57:19;99782.81;;;6.15;77.16
69955;BME280;57279;55.912;37.490;2022-10-22T05:59:45;99784.06;;;6.12;76.68
69955;BME280;57279;55.912;37.490;2022-10-22T06:02:11;99780.25;;;6.01;77.32
69955;BME280;57279;55.912;37.490;2022-10-22T06:04:36;99782.56;;;5.98;77.45
69955;BME280;57279;55.912;37.490;2022-10-22T06:07:02;99782.28;;;6.06;77.87
69955;BME280;57279;55.912;37.490;2022-10-22T06:09:31;99784.88;;;6.13;77.22
69955;BME280;57279;55.912;37.490;2022-10-22T06:11:59;99780.63;;;6.05;77.58
69955;BME280;57279;55.912;37.490;2022-10-22T06:14:26;99785.56;;;6.08;77.06
69955;BME280;57279;55.912;37.490;2022-10-22T06:16:52;99785.94;;;6.12;76.84
69955;BME280;57279;55.912;37.490;2022-10-22T06:19:20;99783.78;;;6.20;76.96
69955;BME280;57279;55.912;37.490;2022-10-22T06:21:46;99787.75;;;6.18;76.48
69955;BME280;57279;55.912;37.490;2022-10-22T06:24:12;99796.41;;;6.38;76.74
69955;BME280;57279;55.912;37.490;2022-10-22T06:26:38;99790.84;;;6.58;76.12
69955;BME280;57279;55.912;37.490;2022-10-22T06:29:04;99789.34;;;6.62;75.78
69955;BME280;57279;55.912;37.490;2022-10-22T06:31:30;99786.38;;;6.71;75.57
69955;BME280;57279;55.912;37.490;2022-10-22T06:34:06;99793.97;;;6.74;75.23
69955;BME280;57279;55.912;37.490;2022-10-22T06:36:32;99782.25;;;6.68;74.75
69955;BME280;57279;55.912;37.490;2022-10-22T06:38:58;99784.88;;;6.75;75.08
69955;BME280;57279;55.912;37.490;2022-10-22T06:41:24;99785.63;;;6.63;75.04
69955;BME280;57279;55.912;37.490;2022-10-22T06:43:50;99789.44;;;6.74;75.39
69955;BME280;57279;55.912;37.490;2022-10-22T06:46:17;99796.88;;;6.91;74.97
69955;BME280;57279;55.912;37.490;2022-10-22T06:48:55;99800.22;;;7.04;74.42
69955;BME280;57279;55.912;37.490;2022-10-22T06:51:21;99799.19;;;6.87;73.60
69955;BME280;57279;55.912;37.490;2022-10-22T06:53:47;99800.59;;;6.53;73.85
69955;BME280;57279;55.912;37.490;2022-10-22T06:56:13;99798.28;;;6.56;74.04
69955;BME280;57279;55.912;37.490;2022-10-22T06:58:40;99798.59;;;6.67;73.87
69955;BME280;57279;55.912;37.490;2022-10-22T07:01:06;99793.69;;;6.63;74.00
69955;BME280;57279;55.912;37.490;2022-10-22T07:03:32;99800.31;;;6.61;73.82
69955;BME280;57279;55.912;37.490;2022-10-22T07:05:59;99808.50;;;6.66;74.07
69955;BME280;57279;55.912;37.490;2022-10-22T07:08:25;99802.31;;;6.65;74.08
69955;BME280;57279;55.912;37.490;2022-10-22T07:10:51;99801.22;;;6.73;73.54
69955;BME280;57279;55.912;37.490;2022-10-22T07:13:16;99815.44;;;6.74;73.48
69955;BME280;57279;55.912;37.490;2022-10-22T07:15:42;99805.66;;;6.79;73.51
69955;BME280;57279;55.912;37.490;2022-10-22T07:18:08;99811.13;;;6.91;73.50
69955;BME280;57279;55.912;37.490;2022-10-22T07:20:33;99804.47;;;6.75;73.51
69955;BME280;57279;55.912;37.490;2022-10-22T07:22:59;99811.78;;;6.87;74.12
69955;BME280;57279;55.912;37.490;2022-10-22T07:25:25;99813.41;;;7.06;73.68
69955;BME280;57279;55.912;37.490;2022-10-22T07:27:50;99813.19;;;7.08;73.18
69955;BME280;57279;55.912;37.490;2022-10-22T07:30:16;99815.44;;;7.11;72.96
69955;BME280;57279;55.912;37.490;2022-10-22T07:32:42;99810.19;;;7.16;72.80
69955;BME280;57279;55.912;37.490;2022-10-22T07:35:08;99802.97;;;7.16;73.00
69955;BME280;57279;55.912;37.490;2022-10-22T07:37:34;99807.44;;;7.04;72.92
69955;BME280;57279;55.912;37.490;2022-10-22T07:39:59;99806.47;;;7.17;73.07
69955;BME280;57279;55.912;37.490;2022-10-22T07:42:25;99805.25;;;7.31;72.83
69955;BME280;57279;55.912;37.490;2022-10-22T07:44:51;99808.91;;;7.37;72.41
69955;BME280;57279;55.912;37.490;2022-10-22T07:47:16;99803.38;;;7.32;72.39
69955;BME280;57279;55.912;37.490;2022-10-22T07:49:42;99811.78;;;7.23;72.26
69955;BME280;57279;55.912;37.490;2022-10-22T07:52:07;99817.72;;;7.26;72.38
69955;BME280;57279;55.912;37.490;2022-10-22T07:54:33;99812.72;;;7.29;72.34
69955;BME280;57279;55.912;37.490;2022-10-22T07:56:58;99810.34;;;7.02;72.44
69955;BME280;57279;55.912;37.490;2022-10-22T07:59:24;99810.88;;;7.11;72.50
69955;BME280;57279;55.912;37.490;2022-10-22T08:01:49;99803.41;;;7.13;72.74
69955;BME280;57279;55.912;37.490;2022-10-22T08:04:15;99817.94;;;7.24;72.33
69955;BME280;57279;55.912;37.490;2022-10-22T08:06:41;99816.63;;;7.15;72.59
69955;BME280;57279;55.912;37.490;2022-10-22T08:09:06;99810.13;;;7.22;72.83
69955;BME280;57279;55.912;37.490;2022-10-22T08:11:32;99813.56;;;7.11;71.90
69955;BME280;57279;55.912;37.490;2022-10-22T08:13:58;99812.97;;;7.09;71.89
69955;BME280;57279;55.912;37.490;2022-10-22T08:16:24;99810.81;;;6.99;72.58
69955;BME280;57279;55.912;37.490;2022-10-22T08:18:49;99818.28;;;6.97;72.47
69955;BME280;57279;55.912;37.490;2022-10-22T08:21:16;99813.88;;;7.03;72.37
69955;BME280;57279;55.912;37.490;2022-10-22T08:23:42;99815.94;;;7.19;72.59
69955;BME280;57279;55.912;37.490;2022-10-22T08:26:07;99821.38;;;7.31;72.35
69955;BME280;57279;55.912;37.490;2022-10-22T08:28:33;99817.19;;;7.35;72.26
69955;BME280;57279;55.912;37.490;2022-10-22T08:31:06;99816.63;;;7.45;72.22
69955;BME280;57279;55.912;37.490;2022-10-22T08:33:32;99815.94;;;7.50;72.09
69955;BME280;57279;55.912;37.490;2022-10-22T08:35:58;99813.47;;;7.48;72.32
69955;BME280;57279;55.912;37.490;2022-10-22T08:38:24;99823.03;;;7.44;72.08
69955;BME280;57279;55.912;37.490;2022-10-22T08:41:07;99819.94;;;7.29;71.35
69955;BME280;57279;55.912;37.490;2022-10-22T08:44:10;99830.78;;;7.22;71.84
69955;BME280;57279;55.912;37.490;2022-10-22T08:46:58;99820.09;;;7.34;72.06
69955;BME280;57279;55.912;37.490;2022-10-22T08:49:29;99818.59;;;7.38;71.14
69955;BME280;57279;55.912;37.490;2022-10-22T08:51:58;99818.59;;;7.38;71.19
69955;BME280;57279;55.912;37.490;2022-10-22T08:54:31;99814.88;;;7.39;71.20
69955;BME280;57279;55.912;37.490;2022-10-22T08:59:32;99819.50;;;7.32;71.49
69955;BME280;57279;55.912;37.490;2022-10-22T09:02:01;99819.31;;;7.45;71.40
69955;BME280;57279;55.912;37.490;2022-10-22T09:04:38;99814.03;;;7.38;71.65
69955;BME280;57279;55.912;37.490;2022-10-22T09:07:08;99813.34;;;7.43;71.34
69955;BME280;57279;55.912;37.490;2022-10-22T09:09:39;99817.38;;;7.52;70.81
69955;BME280;57279;55.912;37.490;2022-10-22T09:12:09;99812.41;;;7.37;71.25
69955;BME280;57279;55.912;37.490;2022-10-22T09:14:38;99816.16;;;7.48;71.75
69955;BME280;57279;55.912;37.490;2022-10-22T09:19:48;99808.53;;;7.63;70.46
69955;BME280;57279;55.912;37.490;2022-10-22T09:22:55;99813.72;;;7.47;70.20
69955;BME280;57279;55.912;37.490;2022-10-22T09:25:27;99806.28;;;7.30;70.44
69955;BME280;57279;55.912;37.490;2022-10-22T09:27:54;99804.81;;;7.16;71.01
69955;BME280;57279;55.912;37.490;2022-10-22T09:30:26;99801.72;;;7.31;70.92
69955;BME280;57279;55.912;37.490;2022-10-22T09:33:11;99805.59;;;7.35;70.44
69955;BME280;57279;55.912;37.490;2022-10-22T09:35:53;99802.88;;;7.23;70.19
69955;BME280;57279;55.912;37.490;2022-10-22T09:38:28;99799.88;;;7.31;70.22
69955;BME280;57279;55.912;37.490;2022-10-22T09:40:56;99804.13;;;7.39;70.23
69955;BME280;57279;55.912;37.490;2022-10-22T09:43:22;99806.84;;;7.51;70.14
69955;BME280;57279;55.912;37.490;2022-10-22T09:45:55;99801.16;;;7.29;69.82
69955;BME280;57279;55.912;37.490;2022-10-22T09:48:28;99800.38;;;7.40;69.90
69955;BME280;57279;55.912;37.490;2022-10-22T09:53:54;99805.75;;;7.40;69.84
69955;BME280;57279;55.912;37.490;2022-10-22T09:56:35;99802.81;;;7.11;69.79
69955;BME280;57279;55.912;37.490;2022-10-22T09:59:02;99794.72;;;6.99;70.66
69955;BME280;57279;55.912;37.490;2022-10-22T10:01:31;99793.63;;;7.19;70.62
69955;BME280;57279;55.912;37.490;2022-10-22T10:04:09;99793.25;;;7.15;70.08
69955;BME280;57279;55.912;37.490;2022-10-22T10:06:37;99796.84;;;7.09;70.13
69955;BME280;57279;55.912;37.490;2022-10-22T10:09:16;99796.25;;;7.26;69.18
69955;BME280;57279;55.912;37.490;2022-10-22T10:11:51;99799.75;;;7.26;68.93
69955;BME280;57279;55.912;37.490;2022-10-22T10:14:52;99799.00;;;7.19;69.15
69955;BME280;57279;55.912;37.490;2022-10-22T10:28:52;99783.88;;;7.67;68.30
69955;BME280;57279;55.912;37.490;2022-10-22T10:37:05;99787.84;;;7.76;68.04
69955;BME280;57279;55.912;37.490;2022-10-22T10:40:20;99786.16;;;7.51;67.90
69955;BME280;57279;55.912;37.490;2022-10-22T10:42:58;99782.66;;;7.51;67.75
69955;BME280;57279;55.912;37.490;2022-10-22T10:51:05;99782.72;;;7.32;67.95
69955;BME280;57279;55.912;37.490;2022-10-22T10:54:15;99774.78;;;7.37;67.76
69955;BME280;57279;55.912;37.490;2022-10-22T10:57:03;99774.69;;;7.44;67.65
69955;BME280;57279;55.912;37.490;2022-10-22T11:02:30;99775.03;;;7.48;68.05
69955;BME280;57279;55.912;37.490;2022-10-22T11:07:52;99771.16;;;7.32;68.80
69955;BME280;57279;55.912;37.490;2022-10-22T11:10:39;99775.75;;;7.43;69.06
69955;BME280;57279;55.912;37.490;2022-10-22T11:16:22;99769.91;;;7.16;69.04
69955;BME280;57279;55.912;37.490;2022-10-22T11:21:50;99760.19;;;7.03;70.15
69955;BME280;57279;55.912;37.490;2022-10-22T11:24:27;99762.59;;;7.23;70.03
69955;BME280;57279;55.912;37.490;2022-10-22T11:27:20;99755.56;;;7.10;69.78
69955;BME280;57279;55.912;37.490;2022-10-22T11:29:56;99752.41;;;7.13;69.49
69955;BME280;57279;55.912;37.490;2022-10-22T11:32:26;99759.97;;;7.04;69.70
69955;BME280;57279;55.912;37.490;2022-10-22T11:34:55;99756.00;;;7.07;69.98
69955;BME280;57279;55.912;37.490;2022-10-22T11:37:23;99752.78;;;7.29;69.72
69955;BME280;57279;55.912;37.490;2022-10-22T11:39:54;99754.84;;;7.45;69.40
69955;BME280;57279;55.912;37.490;2022-10-22T11:42:34;99749.31;;;7.28;69.22
69955;BME280;57279;55.912;37.490;2022-10-22T11:45:25;99746.34;;;7.18;69.34
69955;BME280;57279;55.912;37.490;2022-10-22T11:53:18;99737.34;;;7.54;68.52
69955;BME280;57279;55.912;37.490;2022-10-22T11:55:47;99742.09;;;7.40;68.88
69955;BME280;57279;55.912;37.490;2022-10-22T12:17:15;99721.47;;;7.64;69.63
69955;BME280;57279;55.912;37.490;2022-10-22T12:19:45;99712.38;;;7.66;68.79
69955;BME280;57279;55.912;37.490;2022-10-22T12:22:22;99711.88;;;7.80;68.63
69955;BME280;57279;55.912;37.490;2022-10-22T12:24:51;99713.06;;;7.73;67.96
69955;BME280;57279;55.912;37.490;2022-10-22T12:29:44;99712.66;;;7.46;69.03
69955;BME280;57279;55.912;37.490;2022-10-22T12:32:12;99705.47;;;7.58;69.14
69955;BME280;57279;55.912;37.490;2022-10-22T12:34:49;99705.47;;;7.70;68.79
69955;BME280;57279;55.912;37.490;2022-10-22T12:37:16;99702.66;;;7.64;68.43
69955;BME280;57279;55.912;37.490;2022-10-22T12:39:44;99699.50;;;7.68;68.77
69955;BME280;57279;55.912;37.490;2022-10-22T12:42:15;99699.03;;;7.71;68.01
69955;BME280;57279;55.912;37.490;2022-10-22T12:44:44;99701.47;;;7.60;68.90
69955;BME280;57279;55.912;37.490;2022-10-22T12:47:17;99702.56;;;7.83;68.48
69955;BME280;57279;55.912;37.490;2022-10-22T12:49:47;99700.91;;;7.82;68.20
69955;BME280;57279;55.912;37.490;2022-10-22T12:52:16;99701.84;;;7.88;68.16
69955;BME280;57279;55.912;37.490;2022-10-22T12:54:45;99698.47;;;7.92;68.51
69955;BME280;57279;55.912;37.490;2022-10-22T12:57:14;99694.84;;;7.87;68.23
69955;BME280;57279;55.912;37.490;2022-10-22T12:59:43;99696.94;;;7.96;68.17
69955;BME280;57279;55.912;37.490;2022-10-22T13:02:21;99692.03;;;7.93;67.79
69955;BME280;57279;55.912;37.490;2022-10-22T13:08:04;99690.75;;;7.96;67.25
69955;BME280;57279;55.912;37.490;2022-10-22T13:10:40;99693.78;;;7.99;67.55
69955;BME280;57279;55.912;37.490;2022-10-22T13:13:27;99693.31;;;8.02;67.42
69955;BME280;57279;55.912;37.490;2022-10-22T13:15:52;99690.03;;;8.00;66.95
69955;BME280;57279;55.912;37.490;2022-10-22T13:18:20;99694.47;;;8.07;67.27
69955;BME280;57279;55.912;37.490;2022-10-22T13:20:57;99685.59;;;8.06;67.47
69955;BME280;57279;55.912;37.490;2022-10-22T13:23:27;99687.13;;;8.02;67.31
69955;BME280;57279;55.912;37.490;2022-10-22T13:26:14;99685.69;;;7.99;67.67
69955;BME280;57279;55.912;37.490;2022-10-22T13:28:41;99689.22;;;7.64;68.13
69955;BME280;57279;55.912;37.490;2022-10-22T13:31:18;99686.41;;;7.59;67.21
69955;BME280;57279;55.912;37.490;2022-10-22T13:33:51;99695.13;;;7.31;67.52
69955;BME280;57279;55.912;37.490;2022-10-22T13:36:18;99696.97;;;7.31;73.47
69955;BME280;57279;55.912;37.490;2022-10-22T13:38:43;99683.75;;;7.17;75.25
69955;BME280;57279;55.912;37.490;2022-10-22T13:41:26;99688.16;;;7.12;75.92
69955;BME280;57279;55.912;37.490;2022-10-22T13:43:53;99685.22;;;7.01;75.57
69955;BME280;57279;55.912;37.490;2022-10-22T13:46:19;99684.28;;;6.96;75.72
69955;BME280;57279;55.912;37.490;2022-10-22T13:48:46;99685.44;;;7.00;75.51
69955;BME280;57279;55.912;37.490;2022-10-22T13:51:15;99683.56;;;7.00;75.76
69955;BME280;57279;55.912;37.490;2022-10-22T13:53:41;99686.63;;;7.04;75.76
69955;BME280;57279;55.912;37.490;2022-10-22T13:56:12;99678.78;;;7.02;75.35
69955;BME280;57279;55.912;37.490;2022-10-22T13:58:41;99675.66;;;7.05;74.76
69955;BME280;57279;55.912;37.490;2022-10-22T14:03:45;99674.28;;;7.15;74.00
69955;BME280;57279;55.912;37.490;2022-10-22T14:06:13;99669.75;;;7.15;74.14
69955;BME280;57279;55.912;37.490;2022-10-22T14:08:41;99674.88;;;7.17;74.23
69955;BME280;57279;55.912;37.490;2022-10-22T14:11:10;99673.59;;;7.19;75.38
69955;BME280;57279;55.912;37.490;2022-10-22T14:13:35;99669.75;;;7.15;74.72
69955;BME280;57279;55.912;37.490;2022-10-22T14:16:03;99669.50;;;7.05;73.45
69955;BME280;57279;55.912;37.490;2022-10-22T14:18:30;99678.28;;;7.12;74.02
69955;BME280;57279;55.912;37.490;2022-10-22T14:21:01;99671.84;;;7.13;73.88
69955;BME280;57279;55.912;37.490;2022-10-22T14:23:31;99671.69;;;7.08;72.81
69955;BME280;57279;55.912;37.490;2022-10-22T14:25:59;99667.34;;;6.95;73.01
69955;BME280;57279;55.912;37.490;2022-10-22T14:28:25;99670.63;;;6.97;73.46
69955;BME280;57279;55.912;37.490;2022-10-22T14:30:51;99666.66;;;7.00;73.88
69955;BME280;57279;55.912;37.490;2022-10-22T14:35:47;99663.63;;;7.08;74.03
69955;BME280;57279;55.912;37.490;2022-10-22T14:38:13;99669.84;;;7.09;73.73
69955;BME280;57279;55.912;37.490;2022-10-22T14:40:39;99668.56;;;7.11;73.93
69955;BME280;57279;55.912;37.490;2022-10-22T14:43:19;99671.84;;;7.13;73.99
69955;BME280;57279;55.912;37.490;2022-10-22T14:45:45;99669.38;;;7.12;73.43
69955;BME280;57279;55.912;37.490;2022-10-22T14:48:11;99665.44;;;7.14;73.63
69955;BME280;57279;55.912;37.490;2022-10-22T14:50:36;99663.56;;;7.15;73.48
69955;BME280;57279;55.912;37.490;2022-10-22T14:53:02;99666.81;;;7.17;73.33
69955;BME280;57279;55.912;37.490;2022-10-22T14:55:28;99666.59;;;7.18;73.20
69955;BME280;57279;55.912;37.490;2022-10-22T14:57:54;99661.22;;;7.18;73.89
69955;BME280;57279;55.912;37.490;2022-10-22T15:00:19;99665.44;;;7.14;73.58